sensor_id;sensor_type;location;lat;lon;timestamp;P1;durP1;ratioP1;P2;durP2;ratioP2
15706;SDS011;7953;54.302;10.128;2022-12-05T00:01:33;9.00;;;6.97;;
15706;SDS011;7953;54.302;10.128;2022-12-05T00:04:02;8.50;;;6.47;;
15706;SDS011;7953;54.302;10.128;2022-12-05T00:06:30;9.23;;;6.87;;
15706;SDS011;7953;54.302;10.128;2022-12-05T00:08:58;7.73;;;6.60;;
15706;SDS011;7953;54.302;10.128;2022-12-05T00:11:26;10.33;;;6.77;;
15706;SDS011;7953;54.302;10.128;2022-12-05T00:13:54;9.63;;;6.37;;
15706;SDS011;7953;54.302;10.128;2022-12-05T00:16:24;9.23;;;6.40;;
15706;SDS011;7953;54.302;10.128;2022-12-05T00:18:53;9.17;;;6.03;;
15706;SDS011;7953;54.302;10.128;2022-12-05T00:21:21;8.40;;;6.63;;
15706;SDS011;7953;54.302;10.128;2022-12-05T00:23:50;7.73;;;6.07;;
15706;SDS011;7953;54.302;10.128;2022-12-05T00:26:18;8.57;;;5.70;;
15706;SDS011;7953;54.302;10.128;2022-12-05T00:28:45;7.17;;;5.97;;
15706;SDS011;7953;54.302;10.128;2022-12-05T00:31:13;8.30;;;6.13;;
15706;SDS011;7953;54.302;10.128;2022-12-05T00:33:42;8.40;;;5.80;;
15706;SDS011;7953;54.302;10.128;2022-12-05T00:36:11;8.07;;;5.90;;
15706;SDS011;7953;54.302;10.128;2022-12-05T00:38:40;6.97;;;5.57;;
15706;SDS011;7953;54.302;10.128;2022-12-05T00:41:08;6.27;;;5.23;;
15706;SDS011;7953;54.302;10.128;2022-12-05T00:43:36;9.03;;;5.57;;
15706;SDS011;7953;54.302;10.128;2022-12-05T00:46:03;6.40;;;4.67;;
15706;SDS011;7953;54.302;10.128;2022-12-05T00:48:32;9.10;;;4.77;;
15706;SDS011;7953;54.302;10.128;2022-12-05T00:51:00;8.73;;;4.97;;
15706;SDS011;7953;54.302;10.128;2022-12-05T00:53:28;9.27;;;4.87;;
15706;SDS011;7953;54.302;10.128;2022-12-05T00:55:55;5.57;;;4.53;;
15706;SDS011;7953;54.302;10.128;2022-12-05T00:58:26;10.53;;;4.77;;
15706;SDS011;7953;54.302;10.128;2022-12-05T01:00:53;7.87;;;4.73;;
15706;SDS011;7953;54.302;10.128;2022-12-05T01:03:20;9.50;;;5.23;;
15706;SDS011;7953;54.302;10.128;2022-12-05T01:05:46;6.87;;;4.30;;
15706;SDS011;7953;54.302;10.128;2022-12-05T01:08:13;6.40;;;5.03;;
15706;SDS011;7953;54.302;10.128;2022-12-05T01:10:42;6.67;;;4.60;;
15706;SDS011;7953;54.302;10.128;2022-12-05T01:13:18;6.53;;;5.00;;
15706;SDS011;7953;54.302;10.128;2022-12-05T01:15:44;10.07;;;4.80;;
15706;SDS011;7953;54.302;10.128;2022-12-05T01:18:11;5.83;;;4.57;;
15706;SDS011;7953;54.302;10.128;2022-12-05T01:20:38;6.47;;;4.40;;
15706;SDS011;7953;54.302;10.128;2022-12-05T01:23:05;8.20;;;5.00;;
15706;SDS011;7953;54.302;10.128;2022-12-05T01:25:32;7.67;;;4.83;;
15706;SDS011;7953;54.302;10.128;2022-12-05T01:28:01;5.00;;;4.50;;
15706;SDS011;7953;54.302;10.128;2022-12-05T01:30:28;6.23;;;4.67;;
15706;SDS011;7953;54.302;10.128;2022-12-05T01:32:55;7.07;;;4.57;;
15706;SDS011;7953;54.302;10.128;2022-12-05T01:35:22;7.67;;;4.43;;
15706;SDS011;7953;54.302;10.128;2022-12-05T01:37:48;5.57;;;4.40;;
15706;SDS011;7953;54.302;10.128;2022-12-05T01:40:16;6.87;;;3.87;;
15706;SDS011;7953;54.302;10.128;2022-12-05T01:42:43;7.47;;;4.27;;
15706;SDS011;7953;54.302;10.128;2022-12-05T01:45:15;5.57;;;4.43;;
15706;SDS011;7953;54.302;10.128;2022-12-05T01:47:43;9.33;;;4.57;;
15706;SDS011;7953;54.302;10.128;2022-12-05T01:50:10;7.97;;;4.67;;
15706;SDS011;7953;54.302;10.128;2022-12-05T01:52:38;7.87;;;4.87;;
15706;SDS011;7953;54.302;10.128;2022-12-05T01:55:08;6.30;;;5.37;;
15706;SDS011;7953;54.302;10.128;2022-12-05T01:57:38;5.73;;;4.43;;
15706;SDS011;7953;54.302;10.128;2022-12-05T02:00:08;6.03;;;3.97;;
15706;SDS011;7953;54.302;10.128;2022-12-05T02:02:38;5.93;;;4.50;;
15706;SDS011;7953;54.302;10.128;2022-12-05T02:05:08;5.70;;;4.60;;
15706;SDS011;7953;54.302;10.128;2022-12-05T02:07:41;7.70;;;4.43;;
15706;SDS011;7953;54.302;10.128;2022-12-05T02:10:09;8.43;;;4.90;;
15706;SDS011;7953;54.302;10.128;2022-12-05T02:12:36;9.87;;;5.73;;
15706;SDS011;7953;54.302;10.128;2022-12-05T02:15:10;9.37;;;4.77;;
15706;SDS011;7953;54.302;10.128;2022-12-05T02:17:49;7.00;;;4.90;;
15706;SDS011;7953;54.302;10.128;2022-12-05T02:20:28;8.00;;;4.63;;
15706;SDS011;7953;54.302;10.128;2022-12-05T02:26:27;11.03;;;5.00;;
15706;SDS011;7953;54.302;10.128;2022-12-05T02:32:40;8.03;;;5.50;;
15706;SDS011;7953;54.302;10.128;2022-12-05T02:35:20;8.10;;;5.10;;
15706;SDS011;7953;54.302;10.128;2022-12-05T02:37:58;5.50;;;4.60;;
15706;SDS011;7953;54.302;10.128;2022-12-05T02:40:35;5.30;;;4.47;;
15706;SDS011;7953;54.302;10.128;2022-12-05T02:43:07;8.60;;;5.57;;
15706;SDS011;7953;54.302;10.128;2022-12-05T02:45:39;7.27;;;5.23;;
15706;SDS011;7953;54.302;10.128;2022-12-05T02:48:10;7.77;;;5.40;;
15706;SDS011;7953;54.302;10.128;2022-12-05T02:50:40;6.87;;;5.50;;
15706;SDS011;7953;54.302;10.128;2022-12-05T02:53:09;7.90;;;4.97;;
15706;SDS011;7953;54.302;10.128;2022-12-05T02:55:37;9.00;;;5.50;;
15706;SDS011;7953;54.302;10.128;2022-12-05T02:58:08;6.60;;;5.70;;
15706;SDS011;7953;54.302;10.128;2022-12-05T03:00:41;8.50;;;5.43;;
15706;SDS011;7953;54.302;10.128;2022-12-05T03:03:12;7.33;;;5.57;;
15706;SDS011;7953;54.302;10.128;2022-12-05T03:05:43;9.20;;;6.07;;
15706;SDS011;7953;54.302;10.128;2022-12-05T03:08:17;8.23;;;5.57;;
15706;SDS011;7953;54.302;10.128;2022-12-05T03:10:47;7.50;;;6.00;;
15706;SDS011;7953;54.302;10.128;2022-12-05T03:13:18;7.17;;;5.93;;
15706;SDS011;7953;54.302;10.128;2022-12-05T03:15:50;8.83;;;5.80;;
15706;SDS011;7953;54.302;10.128;2022-12-05T03:18:22;9.97;;;6.53;;
15706;SDS011;7953;54.302;10.128;2022-12-05T03:20:52;10.77;;;6.23;;
15706;SDS011;7953;54.302;10.128;2022-12-05T03:23:25;11.27;;;7.13;;
15706;SDS011;7953;54.302;10.128;2022-12-05T03:25:59;9.20;;;6.43;;
15706;SDS011;7953;54.302;10.128;2022-12-05T03:28:38;8.00;;;5.70;;
15706;SDS011;7953;54.302;10.128;2022-12-05T03:31:11;11.50;;;6.57;;
15706;SDS011;7953;54.302;10.128;2022-12-05T03:33:44;10.00;;;6.70;;
15706;SDS011;7953;54.302;10.128;2022-12-05T03:36:16;8.40;;;6.27;;
15706;SDS011;7953;54.302;10.128;2022-12-05T03:38:48;13.07;;;6.43;;
15706;SDS011;7953;54.302;10.128;2022-12-05T03:41:21;10.53;;;6.80;;
15706;SDS011;7953;54.302;10.128;2022-12-05T03:43:55;8.03;;;6.83;;
15706;SDS011;7953;54.302;10.128;2022-12-05T03:46:26;7.73;;;6.60;;
15706;SDS011;7953;54.302;10.128;2022-12-05T03:48:59;14.70;;;7.10;;
15706;SDS011;7953;54.302;10.128;2022-12-05T03:51:33;10.37;;;6.87;;
15706;SDS011;7953;54.302;10.128;2022-12-05T03:54:03;9.13;;;6.53;;
15706;SDS011;7953;54.302;10.128;2022-12-05T03:56:34;10.13;;;6.90;;
15706;SDS011;7953;54.302;10.128;2022-12-05T03:59:06;10.37;;;7.27;;
15706;SDS011;7953;54.302;10.128;2022-12-05T04:01:37;9.47;;;7.93;;
15706;SDS011;7953;54.302;10.128;2022-12-05T04:04:09;11.40;;;7.60;;
15706;SDS011;7953;54.302;10.128;2022-12-05T04:06:40;11.13;;;7.33;;
15706;SDS011;7953;54.302;10.128;2022-12-05T04:09:11;13.23;;;7.87;;
15706;SDS011;7953;54.302;10.128;2022-12-05T04:11:42;10.53;;;7.87;;
15706;SDS011;7953;54.302;10.128;2022-12-05T04:14:14;9.30;;;7.23;;
15706;SDS011;7953;54.302;10.128;2022-12-05T04:16:45;9.43;;;6.77;;
15706;SDS011;7953;54.302;10.128;2022-12-05T04:19:30;9.60;;;7.30;;
15706;SDS011;7953;54.302;10.128;2022-12-05T04:22:15;9.67;;;7.63;;
15706;SDS011;7953;54.302;10.128;2022-12-05T04:24:43;9.47;;;6.67;;
15706;SDS011;7953;54.302;10.128;2022-12-05T04:27:26;9.43;;;6.97;;
15706;SDS011;7953;54.302;10.128;2022-12-05T04:29:59;13.40;;;6.90;;
15706;SDS011;7953;54.302;10.128;2022-12-05T04:32:29;10.87;;;7.53;;
15706;SDS011;7953;54.302;10.128;2022-12-05T04:35:05;9.90;;;6.73;;
15706;SDS011;7953;54.302;10.128;2022-12-05T04:37:37;13.20;;;6.83;;
15706;SDS011;7953;54.302;10.128;2022-12-05T04:40:09;9.37;;;7.03;;
15706;SDS011;7953;54.302;10.128;2022-12-05T04:45:08;11.83;;;7.00;;
15706;SDS011;7953;54.302;10.128;2022-12-05T04:47:38;10.33;;;7.23;;
15706;SDS011;7953;54.302;10.128;2022-12-05T04:50:11;8.63;;;6.73;;
15706;SDS011;7953;54.302;10.128;2022-12-05T04:52:39;9.77;;;6.77;;
15706;SDS011;7953;54.302;10.128;2022-12-05T04:55:08;8.60;;;5.87;;
15706;SDS011;7953;54.302;10.128;2022-12-05T04:57:39;7.77;;;6.63;;
15706;SDS011;7953;54.302;10.128;2022-12-05T05:00:09;8.53;;;7.13;;
15706;SDS011;7953;54.302;10.128;2022-12-05T05:02:39;9.07;;;6.20;;
15706;SDS011;7953;54.302;10.128;2022-12-05T05:05:11;10.33;;;6.87;;
15706;SDS011;7953;54.302;10.128;2022-12-05T05:07:41;8.20;;;6.03;;
15706;SDS011;7953;54.302;10.128;2022-12-05T05:10:09;8.60;;;6.30;;
15706;SDS011;7953;54.302;10.128;2022-12-05T05:12:40;6.83;;;5.70;;
15706;SDS011;7953;54.302;10.128;2022-12-05T05:15:07;7.53;;;5.97;;
15706;SDS011;7953;54.302;10.128;2022-12-05T05:17:34;7.17;;;5.20;;
15706;SDS011;7953;54.302;10.128;2022-12-05T05:20:02;7.93;;;5.57;;
15706;SDS011;7953;54.302;10.128;2022-12-05T05:22:45;7.43;;;5.07;;
15706;SDS011;7953;54.302;10.128;2022-12-05T05:25:13;10.20;;;5.70;;
15706;SDS011;7953;54.302;10.128;2022-12-05T05:27:40;8.97;;;5.40;;
15706;SDS011;7953;54.302;10.128;2022-12-05T05:30:07;12.17;;;6.00;;
15706;SDS011;7953;54.302;10.128;2022-12-05T05:32:34;6.87;;;5.03;;
15706;SDS011;7953;54.302;10.128;2022-12-05T05:35:01;8.00;;;4.53;;
15706;SDS011;7953;54.302;10.128;2022-12-05T05:37:28;5.50;;;3.97;;
15706;SDS011;7953;54.302;10.128;2022-12-05T05:39:56;7.80;;;4.53;;
15706;SDS011;7953;54.302;10.128;2022-12-05T05:42:23;7.33;;;5.03;;
15706;SDS011;7953;54.302;10.128;2022-12-05T05:44:50;9.37;;;4.70;;
15706;SDS011;7953;54.302;10.128;2022-12-05T05:47:17;7.40;;;5.00;;
15706;SDS011;7953;54.302;10.128;2022-12-05T05:49:43;7.03;;;5.03;;
15706;SDS011;7953;54.302;10.128;2022-12-05T05:52:10;11.10;;;5.80;;
15706;SDS011;7953;54.302;10.128;2022-12-05T05:54:37;9.10;;;6.13;;
15706;SDS011;7953;54.302;10.128;2022-12-05T05:57:05;11.93;;;5.50;;
15706;SDS011;7953;54.302;10.128;2022-12-05T05:59:32;8.70;;;6.33;;
15706;SDS011;7953;54.302;10.128;2022-12-05T06:01:59;9.20;;;6.83;;
15706;SDS011;7953;54.302;10.128;2022-12-05T06:04:26;10.33;;;6.57;;
15706;SDS011;7953;54.302;10.128;2022-12-05T06:06:53;9.47;;;5.73;;
15706;SDS011;7953;54.302;10.128;2022-12-05T06:09:20;8.13;;;6.33;;
15706;SDS011;7953;54.302;10.128;2022-12-05T06:11:47;9.67;;;6.90;;
15706;SDS011;7953;54.302;10.128;2022-12-05T06:14:15;12.03;;;7.67;;
15706;SDS011;7953;54.302;10.128;2022-12-05T06:16:42;11.80;;;7.43;;
15706;SDS011;7953;54.302;10.128;2022-12-05T06:19:09;10.20;;;6.90;;
15706;SDS011;7953;54.302;10.128;2022-12-05T06:21:35;10.93;;;7.40;;
15706;SDS011;7953;54.302;10.128;2022-12-05T06:24:02;11.63;;;7.00;;
15706;SDS011;7953;54.302;10.128;2022-12-05T06:26:30;9.57;;;7.10;;
15706;SDS011;7953;54.302;10.128;2022-12-05T06:28:56;8.40;;;6.50;;
15706;SDS011;7953;54.302;10.128;2022-12-05T06:31:25;10.93;;;7.13;;
15706;SDS011;7953;54.302;10.128;2022-12-05T06:33:55;9.43;;;7.37;;
15706;SDS011;7953;54.302;10.128;2022-12-05T06:36:24;10.37;;;6.93;;
15706;SDS011;7953;54.302;10.128;2022-12-05T06:38:52;9.13;;;6.73;;
15706;SDS011;7953;54.302;10.128;2022-12-05T06:41:19;9.87;;;6.70;;
15706;SDS011;7953;54.302;10.128;2022-12-05T06:43:48;9.47;;;6.17;;
15706;SDS011;7953;54.302;10.128;2022-12-05T06:46:18;8.23;;;6.17;;
15706;SDS011;7953;54.302;10.128;2022-12-05T06:48:46;10.20;;;6.83;;
15706;SDS011;7953;54.302;10.128;2022-12-05T06:51:14;9.30;;;6.43;;
15706;SDS011;7953;54.302;10.128;2022-12-05T06:53:42;9.97;;;7.20;;
15706;SDS011;7953;54.302;10.128;2022-12-05T06:56:10;13.10;;;5.87;;
15706;SDS011;7953;54.302;10.128;2022-12-05T06:58:38;10.00;;;6.83;;
15706;SDS011;7953;54.302;10.128;2022-12-05T07:01:08;10.23;;;7.10;;
15706;SDS011;7953;54.302;10.128;2022-12-05T07:03:55;9.17;;;6.23;;
15706;SDS011;7953;54.302;10.128;2022-12-05T07:06:23;12.23;;;6.93;;
15706;SDS011;7953;54.302;10.128;2022-12-05T07:08:50;11.87;;;6.40;;
15706;SDS011;7953;54.302;10.128;2022-12-05T07:11:17;11.53;;;7.47;;
15706;SDS011;7953;54.302;10.128;2022-12-05T07:13:44;7.97;;;5.93;;
15706;SDS011;7953;54.302;10.128;2022-12-05T07:16:10;7.93;;;5.80;;
15706;SDS011;7953;54.302;10.128;2022-12-05T07:18:37;10.17;;;6.40;;
15706;SDS011;7953;54.302;10.128;2022-12-05T07:21:06;11.37;;;6.20;;
15706;SDS011;7953;54.302;10.128;2022-12-05T07:23:36;8.27;;;6.20;;
15706;SDS011;7953;54.302;10.128;2022-12-05T07:26:04;10.33;;;6.70;;
15706;SDS011;7953;54.302;10.128;2022-12-05T07:28:31;11.23;;;6.03;;
15706;SDS011;7953;54.302;10.128;2022-12-05T07:30:59;8.93;;;6.43;;
15706;SDS011;7953;54.302;10.128;2022-12-05T07:33:26;12.13;;;5.97;;
15706;SDS011;7953;54.302;10.128;2022-12-05T07:35:57;12.07;;;6.37;;
15706;SDS011;7953;54.302;10.128;2022-12-05T07:38:26;10.70;;;7.03;;
15706;SDS011;7953;54.302;10.128;2022-12-05T07:40:54;12.17;;;5.93;;
15706;SDS011;7953;54.302;10.128;2022-12-05T07:43:21;10.43;;;6.17;;
15706;SDS011;7953;54.302;10.128;2022-12-05T07:45:48;8.93;;;6.43;;
15706;SDS011;7953;54.302;10.128;2022-12-05T07:48:15;9.77;;;6.03;;
15706;SDS011;7953;54.302;10.128;2022-12-05T07:50:43;9.00;;;6.03;;
15706;SDS011;7953;54.302;10.128;2022-12-05T07:53:10;7.80;;;5.63;;
15706;SDS011;7953;54.302;10.128;2022-12-05T07:55:38;7.23;;;5.07;;
15706;SDS011;7953;54.302;10.128;2022-12-05T07:58:05;12.77;;;6.23;;
15706;SDS011;7953;54.302;10.128;2022-12-05T08:00:31;7.83;;;5.80;;
15706;SDS011;7953;54.302;10.128;2022-12-05T08:03:00;8.27;;;5.40;;
15706;SDS011;7953;54.302;10.128;2022-12-05T08:05:28;8.87;;;5.50;;
15706;SDS011;7953;54.302;10.128;2022-12-05T08:07:55;11.83;;;6.20;;
15706;SDS011;7953;54.302;10.128;2022-12-05T08:10:21;13.53;;;6.50;;
15706;SDS011;7953;54.302;10.128;2022-12-05T08:12:50;9.13;;;4.80;;
15706;SDS011;7953;54.302;10.128;2022-12-05T08:15:17;8.90;;;5.47;;
15706;SDS011;7953;54.302;10.128;2022-12-05T08:17:43;7.50;;;5.27;;
15706;SDS011;7953;54.302;10.128;2022-12-05T08:20:11;9.10;;;5.93;;
15706;SDS011;7953;54.302;10.128;2022-12-05T08:22:38;9.00;;;5.93;;
15706;SDS011;7953;54.302;10.128;2022-12-05T08:25:05;6.13;;;5.10;;
15706;SDS011;7953;54.302;10.128;2022-12-05T08:27:33;8.40;;;5.30;;
15706;SDS011;7953;54.302;10.128;2022-12-05T08:30:01;9.73;;;5.37;;
15706;SDS011;7953;54.302;10.128;2022-12-05T08:32:28;7.83;;;5.40;;
15706;SDS011;7953;54.302;10.128;2022-12-05T08:34:55;7.47;;;5.17;;
15706;SDS011;7953;54.302;10.128;2022-12-05T08:37:22;10.70;;;5.73;;
15706;SDS011;7953;54.302;10.128;2022-12-05T08:39:49;12.53;;;5.63;;
15706;SDS011;7953;54.302;10.128;2022-12-05T08:42:15;7.70;;;5.40;;
15706;SDS011;7953;54.302;10.128;2022-12-05T08:44:42;10.70;;;6.37;;
15706;SDS011;7953;54.302;10.128;2022-12-05T08:47:10;13.20;;;5.57;;
15706;SDS011;7953;54.302;10.128;2022-12-05T08:49:37;8.40;;;5.60;;
15706;SDS011;7953;54.302;10.128;2022-12-05T08:52:04;9.73;;;5.90;;
15706;SDS011;7953;54.302;10.128;2022-12-05T08:54:31;12.13;;;5.93;;
15706;SDS011;7953;54.302;10.128;2022-12-05T08:56:58;7.30;;;5.70;;
15706;SDS011;7953;54.302;10.128;2022-12-05T08:59:25;12.03;;;6.27;;
15706;SDS011;7953;54.302;10.128;2022-12-05T09:01:52;8.60;;;5.63;;
15706;SDS011;7953;54.302;10.128;2022-12-05T09:04:20;10.30;;;6.47;;
15706;SDS011;7953;54.302;10.128;2022-12-05T09:06:47;9.40;;;6.50;;
15706;SDS011;7953;54.302;10.128;2022-12-05T09:09:13;9.43;;;6.17;;
15706;SDS011;7953;54.302;10.128;2022-12-05T09:11:42;13.40;;;6.60;;
15706;SDS011;7953;54.302;10.128;2022-12-05T09:14:13;12.13;;;6.27;;
15706;SDS011;7953;54.302;10.128;2022-12-05T09:16:42;13.33;;;7.37;;
15706;SDS011;7953;54.302;10.128;2022-12-05T09:19:11;11.50;;;7.43;;
15706;SDS011;7953;54.302;10.128;2022-12-05T09:21:41;11.80;;;7.60;;
15706;SDS011;7953;54.302;10.128;2022-12-05T09:24:09;15.63;;;7.50;;
15706;SDS011;7953;54.302;10.128;2022-12-05T09:26:37;16.97;;;8.00;;
15706;SDS011;7953;54.302;10.128;2022-12-05T09:29:04;15.47;;;8.67;;
15706;SDS011;7953;54.302;10.128;2022-12-05T09:31:31;14.83;;;9.03;;
15706;SDS011;7953;54.302;10.128;2022-12-05T09:33:58;10.97;;;8.07;;
15706;SDS011;7953;54.302;10.128;2022-12-05T09:36:26;14.37;;;8.73;;
15706;SDS011;7953;54.302;10.128;2022-12-05T09:38:58;13.43;;;9.27;;
15706;SDS011;7953;54.302;10.128;2022-12-05T09:41:29;22.23;;;11.70;;
15706;SDS011;7953;54.302;10.128;2022-12-05T09:44:30;31.23;;;18.40;;
15706;SDS011;7953;54.302;10.128;2022-12-05T09:47:29;38.87;;;20.00;;
15706;SDS011;7953;54.302;10.128;2022-12-05T09:50:05;45.70;;;23.40;;
15706;SDS011;7953;54.302;10.128;2022-12-05T09:52:41;42.77;;;22.10;;
15706;SDS011;7953;54.302;10.128;2022-12-05T09:55:15;52.87;;;26.67;;
15706;SDS011;7953;54.302;10.128;2022-12-05T09:57:44;58.00;;;28.20;;
15706;SDS011;7953;54.302;10.128;2022-12-05T10:00:14;54.10;;;27.73;;
15706;SDS011;7953;54.302;10.128;2022-12-05T10:02:44;50.67;;;25.87;;
15706;SDS011;7953;54.302;10.128;2022-12-05T10:05:21;61.17;;;29.97;;
15706;SDS011;7953;54.302;10.128;2022-12-05T10:07:54;54.47;;;26.50;;
15706;SDS011;7953;54.302;10.128;2022-12-05T10:10:31;55.40;;;29.67;;
15706;SDS011;7953;54.302;10.128;2022-12-05T10:13:15;64.10;;;30.93;;
15706;SDS011;7953;54.302;10.128;2022-12-05T10:15:53;52.40;;;27.47;;
15706;SDS011;7953;54.302;10.128;2022-12-05T10:18:26;57.17;;;29.00;;
15706;SDS011;7953;54.302;10.128;2022-12-05T10:20:59;57.23;;;29.17;;
15706;SDS011;7953;54.302;10.128;2022-12-05T10:23:30;58.00;;;29.30;;
15706;SDS011;7953;54.302;10.128;2022-12-05T10:26:04;51.60;;;28.83;;
15706;SDS011;7953;54.302;10.128;2022-12-05T10:28:34;57.20;;;30.30;;
15706;SDS011;7953;54.302;10.128;2022-12-05T10:31:06;54.47;;;28.47;;
15706;SDS011;7953;54.302;10.128;2022-12-05T10:33:39;48.37;;;26.00;;
15706;SDS011;7953;54.302;10.128;2022-12-05T10:36:12;49.97;;;26.67;;
15706;SDS011;7953;54.302;10.128;2022-12-05T10:38:40;51.80;;;25.30;;
15706;SDS011;7953;54.302;10.128;2022-12-05T10:41:10;45.67;;;24.83;;
15706;SDS011;7953;54.302;10.128;2022-12-05T10:43:39;42.30;;;22.87;;
15706;SDS011;7953;54.302;10.128;2022-12-05T10:46:08;39.57;;;23.77;;
15706;SDS011;7953;54.302;10.128;2022-12-05T10:48:36;33.67;;;20.97;;
15706;SDS011;7953;54.302;10.128;2022-12-05T10:51:05;28.47;;;16.73;;
15706;SDS011;7953;54.302;10.128;2022-12-05T10:53:36;21.07;;;12.13;;
15706;SDS011;7953;54.302;10.128;2022-12-05T10:59:07;15.93;;;9.37;;
15706;SDS011;7953;54.302;10.128;2022-12-05T11:01:36;12.47;;;9.30;;
15706;SDS011;7953;54.302;10.128;2022-12-05T11:04:06;16.67;;;9.10;;
15706;SDS011;7953;54.302;10.128;2022-12-05T11:06:36;15.47;;;9.47;;
15706;SDS011;7953;54.302;10.128;2022-12-05T11:09:04;17.43;;;9.13;;
15706;SDS011;7953;54.302;10.128;2022-12-05T11:11:39;16.77;;;9.37;;
15706;SDS011;7953;54.302;10.128;2022-12-05T11:14:19;19.87;;;10.83;;
15706;SDS011;7953;54.302;10.128;2022-12-05T11:16:50;13.47;;;8.67;;
15706;SDS011;7953;54.302;10.128;2022-12-05T11:19:22;22.03;;;10.10;;
15706;SDS011;7953;54.302;10.128;2022-12-05T11:21:52;19.53;;;9.50;;
15706;SDS011;7953;54.302;10.128;2022-12-05T11:24:20;15.93;;;9.70;;
15706;SDS011;7953;54.302;10.128;2022-12-05T11:26:48;17.37;;;9.70;;
15706;SDS011;7953;54.302;10.128;2022-12-05T11:29:28;19.03;;;10.10;;
15706;SDS011;7953;54.302;10.128;2022-12-05T11:31:56;20.17;;;10.23;;
15706;SDS011;7953;54.302;10.128;2022-12-05T11:34:24;16.47;;;10.30;;
15706;SDS011;7953;54.302;10.128;2022-12-05T11:36:55;17.27;;;10.13;;
15706;SDS011;7953;54.302;10.128;2022-12-05T11:39:24;17.07;;;9.87;;
15706;SDS011;7953;54.302;10.128;2022-12-05T11:41:55;15.23;;;9.60;;
15706;SDS011;7953;54.302;10.128;2022-12-05T11:44:36;13.90;;;8.83;;
15706;SDS011;7953;54.302;10.128;2022-12-05T11:47:31;16.37;;;9.27;;
15706;SDS011;7953;54.302;10.128;2022-12-05T11:50:24;15.80;;;9.70;;
15706;SDS011;7953;54.302;10.128;2022-12-05T11:53:03;18.20;;;9.57;;
15706;SDS011;7953;54.302;10.128;2022-12-05T11:55:41;23.67;;;11.40;;
15706;SDS011;7953;54.302;10.128;2022-12-05T11:58:17;21.63;;;11.70;;
15706;SDS011;7953;54.302;10.128;2022-12-05T12:00:59;21.47;;;12.37;;
15706;SDS011;7953;54.302;10.128;2022-12-05T12:03:38;24.40;;;11.13;;
15706;SDS011;7953;54.302;10.128;2022-12-05T12:06:20;23.40;;;11.80;;
15706;SDS011;7953;54.302;10.128;2022-12-05T12:08:57;22.00;;;11.73;;
15706;SDS011;7953;54.302;10.128;2022-12-05T12:11:46;16.60;;;10.37;;
15706;SDS011;7953;54.302;10.128;2022-12-05T12:14:23;20.30;;;11.30;;
15706;SDS011;7953;54.302;10.128;2022-12-05T12:17:01;19.67;;;10.57;;
15706;SDS011;7953;54.302;10.128;2022-12-05T12:22:37;17.00;;;9.13;;
15706;SDS011;7953;54.302;10.128;2022-12-05T12:25:24;17.50;;;9.57;;
15706;SDS011;7953;54.302;10.128;2022-12-05T12:28:02;19.70;;;9.80;;
15706;SDS011;7953;54.302;10.128;2022-12-05T12:30:52;18.70;;;10.53;;
15706;SDS011;7953;54.302;10.128;2022-12-05T12:33:32;20.67;;;9.83;;
15706;SDS011;7953;54.302;10.128;2022-12-05T12:36:05;19.37;;;9.83;;
15706;SDS011;7953;54.302;10.128;2022-12-05T12:38:47;18.97;;;10.23;;
15706;SDS011;7953;54.302;10.128;2022-12-05T12:41:32;17.73;;;9.97;;
15706;SDS011;7953;54.302;10.128;2022-12-05T12:44:16;23.57;;;10.17;;
15706;SDS011;7953;54.302;10.128;2022-12-05T12:46:56;19.30;;;10.90;;
15706;SDS011;7953;54.302;10.128;2022-12-05T12:49:32;19.10;;;10.60;;
15706;SDS011;7953;54.302;10.128;2022-12-05T12:52:11;22.60;;;11.30;;
15706;SDS011;7953;54.302;10.128;2022-12-05T12:54:44;24.20;;;11.83;;
15706;SDS011;7953;54.302;10.128;2022-12-05T12:57:21;21.90;;;10.90;;
15706;SDS011;7953;54.302;10.128;2022-12-05T12:59:58;21.00;;;11.60;;
15706;SDS011;7953;54.302;10.128;2022-12-05T13:02:30;24.17;;;12.07;;
15706;SDS011;7953;54.302;10.128;2022-12-05T13:05:04;21.50;;;13.27;;
15706;SDS011;7953;54.302;10.128;2022-12-05T13:07:43;22.23;;;12.37;;
15706;SDS011;7953;54.302;10.128;2022-12-05T13:10:19;23.27;;;12.33;;
15706;SDS011;7953;54.302;10.128;2022-12-05T13:12:52;21.23;;;11.40;;
15706;SDS011;7953;54.302;10.128;2022-12-05T13:15:23;21.30;;;11.43;;
15706;SDS011;7953;54.302;10.128;2022-12-05T13:17:58;21.97;;;12.17;;
15706;SDS011;7953;54.302;10.128;2022-12-05T13:20:29;23.73;;;11.33;;
15706;SDS011;7953;54.302;10.128;2022-12-05T13:22:59;19.57;;;11.13;;
15706;SDS011;7953;54.302;10.128;2022-12-05T13:25:32;17.87;;;10.93;;
15706;SDS011;7953;54.302;10.128;2022-12-05T13:28:04;20.47;;;10.33;;
15706;SDS011;7953;54.302;10.128;2022-12-05T13:30:35;20.43;;;10.20;;
15706;SDS011;7953;54.302;10.128;2022-12-05T13:33:21;18.47;;;8.80;;
15706;SDS011;7953;54.302;10.128;2022-12-05T13:35:54;18.17;;;10.23;;
15706;SDS011;7953;54.302;10.128;2022-12-05T13:38:40;18.27;;;10.43;;
15706;SDS011;7953;54.302;10.128;2022-12-05T13:41:36;20.87;;;10.17;;
15706;SDS011;7953;54.302;10.128;2022-12-05T13:44:25;17.07;;;9.57;;
15706;SDS011;7953;54.302;10.128;2022-12-05T13:46:58;17.87;;;9.63;;
15706;SDS011;7953;54.302;10.128;2022-12-05T13:49:28;18.87;;;9.33;;
15706;SDS011;7953;54.302;10.128;2022-12-05T13:52:04;14.03;;;8.47;;
15706;SDS011;7953;54.302;10.128;2022-12-05T13:54:40;14.40;;;8.67;;
15706;SDS011;7953;54.302;10.128;2022-12-05T14:00:19;14.60;;;8.23;;
15706;SDS011;7953;54.302;10.128;2022-12-05T14:02:57;12.23;;;7.67;;
15706;SDS011;7953;54.302;10.128;2022-12-05T14:05:46;13.07;;;6.73;;
15706;SDS011;7953;54.302;10.128;2022-12-05T14:11:19;12.07;;;7.30;;
15706;SDS011;7953;54.302;10.128;2022-12-05T14:13:46;11.17;;;6.87;;
15706;SDS011;7953;54.302;10.128;2022-12-05T14:22:39;12.57;;;6.50;;
15706;SDS011;7953;54.302;10.128;2022-12-05T14:25:16;15.70;;;8.03;;
15706;SDS011;7953;54.302;10.128;2022-12-05T14:27:55;11.43;;;7.17;;
15706;SDS011;7953;54.302;10.128;2022-12-05T14:30:32;11.07;;;6.63;;
15706;SDS011;7953;54.302;10.128;2022-12-05T14:33:11;14.07;;;7.60;;
15706;SDS011;7953;54.302;10.128;2022-12-05T14:35:41;11.27;;;7.53;;
15706;SDS011;7953;54.302;10.128;2022-12-05T14:38:18;15.33;;;7.63;;
15706;SDS011;7953;54.302;10.128;2022-12-05T14:40:50;14.17;;;7.67;;
15706;SDS011;7953;54.302;10.128;2022-12-05T14:43:17;12.73;;;7.00;;
15706;SDS011;7953;54.302;10.128;2022-12-05T14:45:54;13.67;;;7.53;;
15706;SDS011;7953;54.302;10.128;2022-12-05T14:48:25;13.30;;;8.00;;
15706;SDS011;7953;54.302;10.128;2022-12-05T14:50:56;11.43;;;7.77;;
15706;SDS011;7953;54.302;10.128;2022-12-05T14:53:26;16.73;;;8.00;;
15706;SDS011;7953;54.302;10.128;2022-12-05T14:56:12;14.13;;;8.70;;
15706;SDS011;7953;54.302;10.128;2022-12-05T14:58:44;12.97;;;8.27;;
15706;SDS011;7953;54.302;10.128;2022-12-05T15:01:15;12.03;;;7.00;;
15706;SDS011;7953;54.302;10.128;2022-12-05T15:04:03;11.67;;;6.90;;
15706;SDS011;7953;54.302;10.128;2022-12-05T15:06:35;10.33;;;7.07;;
15706;SDS011;7953;54.302;10.128;2022-12-05T15:09:20;12.13;;;8.10;;
15706;SDS011;7953;54.302;10.128;2022-12-05T15:11:56;14.80;;;7.93;;
15706;SDS011;7953;54.302;10.128;2022-12-05T15:14:26;14.87;;;7.53;;
15706;SDS011;7953;54.302;10.128;2022-12-05T15:16:58;11.30;;;7.87;;
15706;SDS011;7953;54.302;10.128;2022-12-05T15:19:28;9.90;;;7.10;;
15706;SDS011;7953;54.302;10.128;2022-12-05T15:22:00;10.70;;;6.97;;
15706;SDS011;7953;54.302;10.128;2022-12-05T15:24:35;10.63;;;6.53;;
15706;SDS011;7953;54.302;10.128;2022-12-05T15:27:04;9.47;;;6.97;;
15706;SDS011;7953;54.302;10.128;2022-12-05T15:29:35;11.23;;;6.57;;
15706;SDS011;7953;54.302;10.128;2022-12-05T15:32:05;10.87;;;6.83;;